Time;durP1;ratioP1;P1;durP2;ratioP2;P2;SDS_P1;SDS_P2;PMS_P1;PMS_P2;Temp;Humidity;BMP_temperature;BMP_pressure;BME280_temperature;BME280_humidity;BME280_pressure;Samples;Min_cycle;Max_cycle;Signal;HPM_P1;HPM_P2
2023/03/19 00:01:10;;;;;;;4.5;2;;;;;;;8.08;77.83398;934.2048;;;;
2023/03/19 00:03:38;;;;;;;5.6;2.3;;;;;;;8;78.33008;934.1559;;;;
2023/03/19 00:06:03;;;;;;;11.8;6.3;;;;;;;8.02;78.4375;934.2587;;;;
2023/03/19 00:08:32;;;;;;;16.4;7.7;;;;;;;8.02;78.54883;934.2952;;;;
2023/03/19 00:10:57;;;;;;;10.2;5.3;;;;;;;8;78.51172;934.3264;;;;
2023/03/19 00:13:23;;;;;;;7.6;3.9;;;;;;;7.87;79.06738;934.3208;;;;
2023/03/19 00:15:55;;;;;;;9;4.6;;;;;;;7.93;78.8291;934.2511;;;;
2023/03/19 00:18:21;;;;;;;4.2;2.7;;;;;;;7.85;79.44043;934.3926;;;;
2023/03/19 00:20:46;;;;;;;4.4;2.7;;;;;;;7.9;79.21973;934.3616;;;;
2023/03/19 00:23:12;;;;;;;2.9;2.2;;;;;;;7.99;78.32813;934.4063;;;;
2023/03/19 00:25:58;;;;;;;3.6;2.1;;;;;;;8.06;77.89941;934.4408;;;;
2023/03/19 00:28:39;;;;;;;4;1.9;;;;;;;8.02;77.87012;934.5086;;;;
2023/03/19 00:31:05;;;;;;;3.8;2.4;;;;;;;7.97;78.18945;934.4647;;;;
2023/03/19 00:33:33;;;;;;;4;2.2;;;;;;;7.9;78.46094;934.532;;;;
2023/03/19 00:36:10;;;;;;;3.4;2.2;;;;;;;7.87;78.75977;934.5602;;;;
2023/03/19 00:38:40;;;;;;;3.3;2;;;;;;;7.64;79.87695;934.6344;;;;
2023/03/19 00:41:09;;;;;;;4.9;2.8;;;;;;;7.51;80.78125;934.6433;;;;
2023/03/19 00:43:36;;;;;;;7.2;3.1;;;;;;;7.44;81.37012;934.6597;;;;
2023/03/19 00:46:00;;;;;;;4.1;3.2;;;;;;;7.51;81.01953;934.6995;;;;
2023/03/19 00:48:26;;;;;;;5.2;3;;;;;;;7.6;80.41406;934.6803;;;;
2023/03/19 00:50:52;;;;;;;3.7;2.4;;;;;;;7.51;80.30273;934.6638;;;;
2023/03/19 00:53:17;;;;;;;3.8;2.7;;;;;;;7.48;80.36816;934.6833;;;;
2023/03/19 00:55:49;;;;;;;5.7;3.1;;;;;;;7.44;81.16406;934.6604;;;;
2023/03/19 00:58:19;;;;;;;6.4;2.8;;;;;;;7.48;80.71973;934.6064;;;;
2023/03/19 01:00:50;;;;;;;6.4;3.1;;;;;;;7.52;80.1377;934.5927;;;;
2023/03/19 01:03:13;;;;;;;5.8;3;;;;;;;7.58;80.01172;934.6071;;;;
2023/03/19 01:05:42;;;;;;;4;3.1;;;;;;;7.49;80.06348;934.5692;;;;
2023/03/19 01:08:08;;;;;;;6.7;3.1;;;;;;;7.39;80.52051;934.623;;;;
2023/03/19 01:10:38;;;;;;;5.6;3.1;;;;;;;7.44;80.42871;934.5488;;;;
2023/03/19 01:13:07;;;;;;;4.9;3;;;;;;;7.51;79.99902;934.6234;;;;
2023/03/19 01:15:35;;;;;;;6.1;3.2;;;;;;;7.58;79.75098;934.5706;;;;
2023/03/19 01:18:00;;;;;;;5.9;3.3;;;;;;;7.4;80.0918;934.5042;;;;
2023/03/19 01:20:26;;;;;;;6;3.4;;;;;;;7.33;80.55469;934.5;;;;
2023/03/19 01:22:54;;;;;;;4;2.6;;;;;;;7.3;80.62891;934.5337;;;;
2023/03/19 01:25:20;;;;;;;5.5;2.7;;;;;;;7.19;81.14063;934.5784;;;;
2023/03/19 01:27:50;;;;;;;3.1;2.5;;;;;;;7.12;81.56934;934.5463;;;;
2023/03/19 01:30:15;;;;;;;3;2.1;;;;;;;7.02;82.12793;934.5162;;;;
2023/03/19 01:32:44;;;;;;;5.1;2.2;;;;;;;6.98;82.63965;934.5018;;;;
2023/03/19 01:35:15;;;;;;;3.2;2.2;;;;;;;6.86;83.50195;934.5204;;;;
2023/03/19 01:37:43;;;;;;;4.1;2.3;;;;;;;6.83;83.82324;934.5681;;;;
2023/03/19 01:40:20;;;;;;;4;2.4;;;;;;;6.93;83.4707;934.49;;;;
2023/03/19 01:42:51;;;;;;;4.9;3.1;;;;;;;6.99;82.97168;934.5432;;;;
2023/03/19 01:45:16;;;;;;;7.2;3.1;;;;;;;7.04;82.88965;934.5744;;;;
2023/03/19 01:47:46;;;;;;;7.6;3.2;;;;;;;7.02;82.78418;934.498;;;;
2023/03/19 01:50:18;;;;;;;4.9;3.2;;;;;;;7.05;82.72168;934.4891;;;;
2023/03/19 01:52:54;;;;;;;6.3;3.2;;;;;;;7.1;82.16406;934.5405;;;;
2023/03/19 01:55:24;;;;;;;8.9;4.4;;;;;;;7.2;82.08105;934.5159;;;;
2023/03/19 01:57:55;;;;;;;6.8;4.1;;;;;;;7.23;81.71387;934.5975;;;;
2023/03/19 02:00:27;;;;;;;7.1;4;;;;;;;7.23;81.45313;934.6006;;;;
2023/03/19 02:02:52;;;;;;;7.1;4.2;;;;;;;7.28;81.05371;934.5848;;;;
2023/03/19 02:05:26;;;;;;;6.3;3.8;;;;;;;7.35;80.58008;934.642;;;;
2023/03/19 02:07:48;;;;;;;6.9;3.7;;;;;;;7.2;80.98242;934.6394;;;;
2023/03/19 02:10:14;;;;;;;6;3.2;;;;;;;7.17;81.35254;934.5907;;;;
2023/03/19 02:12:45;;;;;;;5.2;3.2;;;;;;;7.21;81.09863;934.6169;;;;
2023/03/19 02:15:18;;;;;;;6.5;3.1;;;;;;;7.21;81.08789;934.67;;;;
2023/03/19 02:17:43;;;;;;;5.2;2.9;;;;;;;7.14;81.58496;934.6423;;;;
2023/03/19 02:20:10;;;;;;;3.7;2.1;;;;;;;7.04;82.42578;934.7088;;;;
2023/03/19 02:22:40;;;;;;;4.7;2.5;;;;;;;6.95;82.9043;934.7173;;;;
2023/03/19 02:25:06;;;;;;;3.9;2.8;;;;;;;6.96;82.66113;934.7137;;;;
2023/03/19 02:27:31;;;;;;;3.1;2.1;;;;;;;7.04;82.29004;934.7271;;;;
2023/03/19 02:29:56;;;;;;;3.9;2.4;;;;;;;7.14;81.55176;934.698;;;;
2023/03/19 02:32:25;;;;;;;2.7;2;;;;;;;7.24;80.96973;934.7037;;;;
2023/03/19 02:34:50;;;;;;;4.7;2.3;;;;;;;7.24;80.93359;934.7378;;;;
2023/03/19 02:37:19;;;;;;;3.9;2.7;;;;;;;7.29;81.00293;934.7244;;;;
2023/03/19 02:39:49;;;;;;;4.7;3.1;;;;;;;7.33;80.75879;934.7266;;;;
2023/03/19 02:42:14;;;;;;;7.3;4;;;;;;;7.27;80.7373;934.7446;;;;
2023/03/19 02:44:39;;;;;;;4.2;2.8;;;;;;;7.23;80.89648;934.6941;;;;
2023/03/19 02:47:04;;;;;;;4.3;2.9;;;;;;;7.23;80.80566;934.6434;;;;
2023/03/19 02:49:34;;;;;;;3.6;2.4;;;;;;;7.22;80.625;934.6544;;;;
2023/03/19 02:51:59;;;;;;;6.4;2.6;;;;;;;7.05;81.13574;934.7194;;;;
2023/03/19 02:54:27;;;;;;;3;2.3;;;;;;;6.92;81.82422;934.815;;;;
2023/03/19 02:57:19;;;;;;;4;2;;;;;;;6.81;82.33496;934.7755;;;;
2023/03/19 02:59:44;;;;;;;4.6;2.7;;;;;;;6.59;83.59473;934.7793;;;;
2023/03/19 03:02:10;;;;;;;3.7;2.1;;;;;;;6.62;83.74707;934.8172;;;;
2023/03/19 03:04:35;;;;;;;4.7;2.4;;;;;;;6.75;82.86621;934.8092;;;;
2023/03/19 03:07:00;;;;;;;4.1;2.7;;;;;;;6.81;82.45996;934.7898;;;;
2023/03/19 03:09:29;;;;;;;4.6;2.7;;;;;;;6.8;83.06934;934.8878;;;;
2023/03/19 03:11:54;;;;;;;5.9;3;;;;;;;6.88;82.91504;934.8934;;;;
2023/03/19 03:14:20;;;;;;;4.7;2.4;;;;;;;6.97;82.30957;934.937;;;;
2023/03/19 03:16:47;;;;;;;3.3;2.4;;;;;;;6.92;82.16504;934.9717;;;;
2023/03/19 03:19:15;;;;;;;4.8;2.6;;;;;;;6.82;82.54199;934.9811;;;;
2023/03/19 03:21:41;;;;;;;5.1;2.5;;;;;;;6.76;82.89258;935.0595;;;;
2023/03/19 03:24:08;;;;;;;4.8;2.7;;;;;;;6.66;83.40527;935.0933;;;;
2023/03/19 03:26:33;;;;;;;4.6;2.3;;;;;;;6.61;83.72461;935.0569;;;;
2023/03/19 03:29:02;;;;;;;5.1;2.5;;;;;;;6.68;83.51074;935.0731;;;;
2023/03/19 03:31:28;;;;;;;3.3;2.2;;;;;;;6.78;83.12402;935.1051;;;;
2023/03/19 03:33:55;;;;;;;3.8;2;;;;;;;6.84;82.51172;935.0471;;;;
2023/03/19 03:36:21;;;;;;;4.5;2.6;;;;;;;6.88;82.41699;935.1403;;;;
2023/03/19 03:38:49;;;;;;;4.3;2.4;;;;;;;6.87;82.39258;935.1639;;;;
2023/03/19 03:41:14;;;;;;;3.5;2.4;;;;;;;6.77;83.43555;935.1387;;;;
2023/03/19 03:43:40;;;;;;;4.1;2.4;;;;;;;6.77;83.45996;935.15;;;;
2023/03/19 03:46:06;;;;;;;3.5;2.2;;;;;;;6.83;83.04199;935.1228;;;;
2023/03/19 03:48:35;;;;;;;6.3;2.6;;;;;;;6.89;82.5332;935.2283;;;;
2023/03/19 03:51:04;;;;;;;3.4;2.1;;;;;;;6.96;82.04883;935.2447;;;;
2023/03/19 03:53:29;;;;;;;2.5;2.1;;;;;;;7.03;81.41602;935.2051;;;;
2023/03/19 03:55:57;;;;;;;2.5;1.9;;;;;;;7.04;81.24805;935.2012;;;;
2023/03/19 03:58:22;;;;;;;3.9;2.5;;;;;;;6.92;81.65527;935.1909;;;;
2023/03/19 04:03:21;;;;;;;4.9;2.3;;;;;;;6.74;82.49316;935.2949;;;;
2023/03/19 04:05:50;;;;;;;4.4;2.5;;;;;;;6.62;83.08105;935.2698;;;;
2023/03/19 04:08:15;;;;;;;4.3;2.2;;;;;;;6.57;83.4668;935.3381;;;;
2023/03/19 04:10:46;;;;;;;3.3;2.4;;;;;;;6.49;83.94629;935.3152;;;;
2023/03/19 04:13:15;;;;;;;2.3;1.8;;;;;;;6.4;84.39648;935.3725;;;;
2023/03/19 04:15:49;;;;;;;5.2;2.3;;;;;;;6.36;84.57813;935.3644;;;;
2023/03/19 04:18:14;;;;;;;3.4;2.2;;;;;;;6.33;84.93457;935.4152;;;;
2023/03/19 04:20:44;;;;;;;3.9;2.5;;;;;;;6.29;85.45801;935.4057;;;;
2023/03/19 04:23:12;;;;;;;4.8;2.4;;;;;;;6.38;85.11426;935.4851;;;;
2023/03/19 04:25:39;;;;;;;3.1;2;;;;;;;6.48;84.93066;935.4961;;;;
2023/03/19 04:28:04;;;;;;;4.2;2.2;;;;;;;6.59;84.36426;935.4872;;;;
2023/03/19 04:33:30;;;;;;;3.6;2.1;;;;;;;6.61;83.98438;935.5623;;;;
2023/03/19 04:36:03;;;;;;;4;2.4;;;;;;;6.66;83.57422;935.6099;;;;
2023/03/19 04:38:35;;;;;;;4.3;2.2;;;;;;;6.66;83.46191;935.5831;;;;
2023/03/19 04:41:03;;;;;;;3.4;2;;;;;;;6.67;83.97266;935.5366;;;;
2023/03/19 04:43:28;;;;;;;4.6;2.2;;;;;;;6.66;83.47266;935.5125;;;;
2023/03/19 04:45:56;;;;;;;3.6;2.5;;;;;;;6.71;83.52832;935.5823;;;;
2023/03/19 04:48:21;;;;;;;3.2;2.3;;;;;;;6.82;83.11914;935.6276;;;;
2023/03/19 04:50:51;;;;;;;6.9;2.9;;;;;;;6.92;82.56152;935.6555;;;;
2023/03/19 04:53:13;;;;;;;5.9;2.7;;;;;;;7.03;82.26367;935.6284;;;;
2023/03/19 04:55:41;;;;;;;5.6;2.6;;;;;;;7.01;82.26367;935.6805;;;;
2023/03/19 04:58:07;;;;;;;5.9;2.3;;;;;;;7.02;82.49023;935.7123;;;;
2023/03/19 05:00:35;;;;;;;3.4;1.9;;;;;;;7.04;82.48242;935.7466;;;;
2023/03/19 05:03:00;;;;;;;3.1;2;;;;;;;7.05;82.24609;935.7264;;;;
2023/03/19 05:05:30;;;;;;;6.8;2.8;;;;;;;7.1;82.49219;935.8285;;;;
2023/03/19 05:07:58;;;;;;;4.8;2.6;;;;;;;7.18;82.39648;935.8395;;;;
2023/03/19 05:10:42;;;;;;;7.2;3.4;;;;;;;7.2;82.18457;935.8185;;;;
2023/03/19 05:13:09;;;;;;;6.4;3.8;;;;;;;7.23;81.625;935.7988;;;;
2023/03/19 05:15:37;;;;;;;7.7;3.8;;;;;;;7.16;81.78125;935.7854;;;;
2023/03/19 05:18:05;;;;;;;6.1;3.8;;;;;;;7.24;81.63672;935.8052;;;;
2023/03/19 05:20:31;;;;;;;7.5;3.4;;;;;;;7.21;81.50488;935.8621;;;;
2023/03/19 05:23:03;;;;;;;6.3;3.2;;;;;;;7.13;81.74023;935.8711;;;;
2023/03/19 05:25:28;;;;;;;5.8;2.9;;;;;;;7.15;81.51758;935.9609;;;;
2023/03/19 05:27:56;;;;;;;6;3.3;;;;;;;7.08;81.7207;936.0119;;;;
2023/03/19 05:30:22;;;;;;;3.8;3;;;;;;;6.89;82.58984;935.9772;;;;
2023/03/19 05:32:53;;;;;;;4.1;2.7;;;;;;;6.85;82.94336;936.0499;;;;
2023/03/19 05:35:23;;;;;;;5.4;2.7;;;;;;;6.97;82.70605;936.0561;;;;
2023/03/19 05:37:47;;;;;;;4.6;3;;;;;;;6.98;82.85645;936.0809;;;;
2023/03/19 05:40:17;;;;;;;3.3;2.8;;;;;;;6.97;83.18164;936.0966;;;;
2023/03/19 05:42:42;;;;;;;5.6;3.1;;;;;;;7.08;82.78516;936.1528;;;;
2023/03/19 05:45:11;;;;;;;12.6;7.1;;;;;;;7.12;82.66797;936.1542;;;;
2023/03/19 05:47:38;;;;;;;17.2;9.7;;;;;;;7.23;82.2373;936.1376;;;;
2023/03/19 05:50:06;;;;;;;18.8;11.1;;;;;;;7.24;81.98926;936.1418;;;;
2023/03/19 05:52:46;;;;;;;9;5.8;;;;;;;7.31;81.92188;936.1898;;;;
2023/03/19 05:55:14;;;;;;;5.8;4.3;;;;;;;7.45;81.66602;936.2472;;;;
2023/03/19 05:57:39;;;;;;;4.9;3.6;;;;;;;7.48;81.04785;936.3769;;;;
2023/03/19 06:00:05;;;;;;;5.8;3.5;;;;;;;7.5;81.2666;936.4691;;;;
2023/03/19 06:02:30;;;;;;;6.3;3.7;;;;;;;7.58;81.1123;936.4484;;;;
2023/03/19 06:04:56;;;;;;;4.6;3.2;;;;;;;7.68;81.0293;936.4124;;;;
2023/03/19 06:07:21;;;;;;;6;3.8;;;;;;;7.76;81.12207;936.4247;;;;
2023/03/19 06:09:50;;;;;;;12.9;8.1;;;;;;;7.84;81.2168;936.4208;;;;
2023/03/19 06:12:16;;;;;;;13.2;8.1;;;;;;;7.89;81.3291;936.4525;;;;
2023/03/19 06:14:42;;;;;;;12.5;7.3;;;;;;;7.95;81.66992;936.5042;;;;
2023/03/19 06:17:08;;;;;;;11.4;6.4;;;;;;;7.89;81.51074;936.5937;;;;
2023/03/19 06:19:35;;;;;;;10.7;7;;;;;;;7.92;81.66309;936.6583;;;;
2023/03/19 06:21:59;;;;;;;10.9;6.5;;;;;;;7.99;81.30273;936.7744;;;;
2023/03/19 06:24:29;;;;;;;4.9;3;;;;;;;7.89;80.50195;936.803;;;;
2023/03/19 06:26:52;;;;;;;6.6;3.1;;;;;;;7.91;80.64063;936.8739;;;;
2023/03/19 06:29:19;;;;;;;4;2.2;;;;;;;7.99;80.42871;936.9204;;;;
2023/03/19 06:31:45;;;;;;;4.9;2.6;;;;;;;7.96;80.01465;936.8438;;;;
2023/03/19 06:34:11;;;;;;;2.9;2.3;;;;;;;7.98;80.99609;936.9662;;;;
2023/03/19 06:39:59;;;;;;;4;2.3;;;;;;;8.16;80.58496;936.9194;;;;
2023/03/19 06:42:29;;;;;;;4.1;2.7;;;;;;;8.2;80.34375;936.883;;;;
2023/03/19 06:44:58;;;;;;;6.2;3.1;;;;;;;8.41;80.41699;936.9152;;;;
2023/03/19 06:47:23;;;;;;;5.1;2.9;;;;;;;8.47;79.55176;936.9164;;;;
2023/03/19 06:50:03;;;;;;;6.2;3.5;;;;;;;8.6;79.64551;936.9239;;;;
2023/03/19 06:52:27;;;;;;;5.7;2.8;;;;;;;8.81;77.63867;936.9252;;;;
2023/03/19 06:54:57;;;;;;;6;3.4;;;;;;;8.93;76.90723;937.0061;;;;
2023/03/19 06:57:28;;;;;;;7;3.4;;;;;;;9.06;76.2373;937.0145;;;;
2023/03/19 06:59:56;;;;;;;7.2;4.8;;;;;;;9.03;75.77734;937.0157;;;;
2023/03/19 07:02:22;;;;;;;7.5;4.2;;;;;;;9.12;76.71484;937.0574;;;;
2023/03/19 07:04:47;;;;;;;6.1;3.6;;;;;;;8.94;75.27051;937.0475;;;;
2023/03/19 07:07:15;;;;;;;7.2;3.7;;;;;;;8.77;76.4248;937.1188;;;;
2023/03/19 07:09:41;;;;;;;6.7;3.8;;;;;;;8.95;76.84375;937.1501;;;;
2023/03/19 07:12:08;;;;;;;4.4;3.3;;;;;;;9.08;76.25195;937.1791;;;;
2023/03/19 07:14:34;;;;;;;8.4;3.4;;;;;;;9.03;75.50293;937.1228;;;;
2023/03/19 07:17:01;;;;;;;6.3;3.4;;;;;;;9.13;75.16895;937.1559;;;;
2023/03/19 07:19:26;;;;;;;7.3;3.8;;;;;;;9.1;76.05176;937.146;;;;
2023/03/19 07:21:54;;;;;;;6.8;3.6;;;;;;;9.06;74.96094;937.201;;;;
2023/03/19 07:24:23;;;;;;;6.2;3.3;;;;;;;9.02;75.43262;937.2004;;;;
2023/03/19 07:26:49;;;;;;;5;2.7;;;;;;;8.94;75.94336;937.2087;;;;
2023/03/19 07:29:16;;;;;;;3.5;2.7;;;;;;;9.12;75.88379;937.2274;;;;
2023/03/19 07:31:41;;;;;;;6.1;3.3;;;;;;;9.33;75.84082;937.204;;;;
2023/03/19 07:34:11;;;;;;;4.1;3.3;;;;;;;9.48;76.92578;937.2887;;;;
2023/03/19 07:36:42;;;;;;;6.9;4.2;;;;;;;9.77;75.99707;937.247;;;;
2023/03/19 07:39:07;;;;;;;8;4.3;;;;;;;9.96;73.93359;937.2619;;;;
2023/03/19 07:41:34;;;;;;;6;2.8;;;;;;;10.03;73.03223;937.2565;;;;
2023/03/19 07:44:02;;;;;;;5.3;2.9;;;;;;;10.32;73.77734;937.2526;;;;
2023/03/19 07:46:32;;;;;;;5.2;3.2;;;;;;;10.76;71.30566;937.2224;;;;
2023/03/19 07:49:01;;;;;;;4.4;2.4;;;;;;;11.19;69.62695;937.1227;;;;
2023/03/19 07:51:32;;;;;;;3.6;2.1;;;;;;;11.64;67.45508;937.2131;;;;
2023/03/19 07:54:01;;;;;;;4.4;2.1;;;;;;;11.98;65.37891;937.1805;;;;
2023/03/19 07:56:26;;;;;;;3.8;2.5;;;;;;;12.25;63.5498;937.1519;;;;
2023/03/19 07:58:55;;;;;;;3.8;2.7;;;;;;;12.48;63.44531;937.1531;;;;
2023/03/19 08:01:20;;;;;;;4.6;2.2;;;;;;;12.88;61.13965;937.0823;;;;
2023/03/19 08:03:49;;;;;;;3.7;2;;;;;;;13.27;60.05664;936.9601;;;;
2023/03/19 08:06:19;;;;;;;5.5;2.5;;;;;;;13.41;60.00781;936.9805;;;;
2023/03/19 08:08:43;;;;;;;2.5;2.1;;;;;;;13.65;58.9375;937.0528;;;;
2023/03/19 08:11:11;;;;;;;4.1;2.5;;;;;;;13.45;59.24316;937.0574;;;;
2023/03/19 08:13:36;;;;;;;3.3;2.8;;;;;;;13.34;59.53809;937.1014;;;;
2023/03/19 08:16:05;;;;;;;4.1;3;;;;;;;13.21;59.21094;937.1617;;;;
2023/03/19 08:18:31;;;;;;;5.5;3.7;;;;;;;13.09;59.22852;937.1024;;;;
2023/03/19 08:20:55;;;;;;;6;3.3;;;;;;;13.14;59.21289;937.1845;;;;
2023/03/19 08:23:28;;;;;;;4.5;2.5;;;;;;;13.28;59.10547;937.1655;;;;
2023/03/19 08:25:58;;;;;;;3.7;2.3;;;;;;;13.5;58.19141;937.1003;;;;
2023/03/19 08:28:23;;;;;;;5.4;2.4;;;;;;;13.64;55.56543;937.0833;;;;
2023/03/19 08:30:51;;;;;;;3.3;2;;;;;;;13.48;56.12012;937.0876;;;;
2023/03/19 08:33:16;;;;;;;3.4;2.4;;;;;;;13.69;55.79102;937.1047;;;;
2023/03/19 08:35:45;;;;;;;4;2.3;;;;;;;13.91;55.66895;937.0887;;;;
2023/03/19 08:38:11;;;;;;;4.6;2.3;;;;;;;14.27;54.77148;937.0551;;;;
2023/03/19 08:40:36;;;;;;;4;2.7;;;;;;;14.56;52.76758;937.0623;;;;
2023/03/19 08:43:05;;;;;;;3.4;2.4;;;;;;;14.85;53.35645;937.1014;;;;
2023/03/19 08:45:30;;;;;;;3.2;2.5;;;;;;;15.3;51.77246;937.0414;;;;
2023/03/19 08:47:59;;;;;;;4.5;2.7;;;;;;;15.51;51.35742;937.0049;;;;
2023/03/19 08:50:28;;;;;;;3.8;2.5;;;;;;;15.63;51.17578;937.045;;;;
2023/03/19 08:52:54;;;;;;;5.4;3.1;;;;;;;15.41;52.12012;937.0002;;;;
2023/03/19 08:55:23;;;;;;;6;2.7;;;;;;;15.48;51.81543;937.075;;;;
2023/03/19 08:57:49;;;;;;;3.7;2.9;;;;;;;15.61;52.22461;937.0698;;;;
2023/03/19 09:00:23;;;;;;;5.1;2.8;;;;;;;15.67;51.97754;937.0742;;;;
2023/03/19 09:06:13;;;;;;;3.4;2.6;;;;;;;15.72;50.00684;937.1298;;;;
2023/03/19 09:08:41;;;;;;;4.9;2.9;;;;;;;15.62;51.45117;937.1142;;;;
2023/03/19 09:11:06;;;;;;;4.1;3;;;;;;;15.52;51.1748;937.1772;;;;
2023/03/19 09:13:32;;;;;;;6.2;3.1;;;;;;;15.25;50.11523;937.1094;;;;
2023/03/19 09:15:59;;;;;;;4.7;2.7;;;;;;;15.02;50.36523;937.14;;;;
2023/03/19 09:18:31;;;;;;;4.9;2.7;;;;;;;14.91;51.23047;937.1914;;;;
2023/03/19 09:20:59;;;;;;;3.7;2.7;;;;;;;14.84;51.5791;937.1096;;;;
2023/03/19 09:23:24;;;;;;;4.1;2.8;;;;;;;14.78;51.73438;937.1169;;;;
2023/03/19 09:25:53;;;;;;;3.7;2.6;;;;;;;14.83;51.24316;937.0815;;;;
2023/03/19 09:28:23;;;;;;;3.2;2.5;;;;;;;15.21;50.37793;937.0886;;;;
2023/03/19 09:30:48;;;;;;;3.3;2.6;;;;;;;15.43;49.54785;937.135;;;;
2023/03/19 09:33:16;;;;;;;3.5;2.5;;;;;;;15.38;49.77344;937.1721;;;;
2023/03/19 09:35:43;;;;;;;3.6;2.3;;;;;;;15.46;48.4082;937.1434;;;;
2023/03/19 09:38:12;;;;;;;3.4;2.4;;;;;;;15.69;47.43945;937.1382;;;;
2023/03/19 09:40:42;;;;;;;2.9;2.3;;;;;;;16.06;47.86133;937.0811;;;;
2023/03/19 09:43:07;;;;;;;3.7;2.4;;;;;;;16.24;46.45801;937.0877;;;;
2023/03/19 09:45:34;;;;;;;3.9;2.4;;;;;;;16.17;47.2832;937.0602;;;;
2023/03/19 09:47:59;;;;;;;3.7;2.4;;;;;;;16.69;47.18945;937.0817;;;;
2023/03/19 09:50:25;;;;;;;3.5;2.3;;;;;;;17.87;45.33008;937.1058;;;;
2023/03/19 09:52:55;;;;;;;3.7;2;;;;;;;19.21;40.62207;937.0577;;;;
2023/03/19 09:55:25;;;;;;;4.1;2.4;;;;;;;19.35;39.5752;937.03;;;;
2023/03/19 09:57:50;;;;;;;3.3;2.4;;;;;;;18.13;42.3125;936.9651;;;;
2023/03/19 10:00:21;;;;;;;3.6;2.5;;;;;;;17.11;44.37109;937.0947;;;;
2023/03/19 10:02:48;;;;;;;4.6;2.7;;;;;;;16.49;45.4082;937.0505;;;;
2023/03/19 10:05:20;;;;;;;4;2.8;;;;;;;15.89;46.54883;936.9995;;;;
2023/03/19 10:07:48;;;;;;;4;2.9;;;;;;;15.3;48.14648;936.9885;;;;
2023/03/19 10:10:21;;;;;;;3.2;2.4;;;;;;;15.01;49.5332;937.0198;;;;
2023/03/19 10:12:45;;;;;;;4.2;2.4;;;;;;;15.05;50.31152;937.0701;;;;
2023/03/19 10:15:11;;;;;;;3.8;2.5;;;;;;;15;50.45508;937.0519;;;;
2023/03/19 10:17:36;;;;;;;3.6;2.6;;;;;;;14.97;49.75977;937.0482;;;;
2023/03/19 10:20:02;;;;;;;5.4;2.9;;;;;;;15.27;48.7207;936.976;;;;
2023/03/19 10:22:28;;;;;;;4.1;2.6;;;;;;;15;50.73242;937.0399;;;;
2023/03/19 10:24:53;;;;;;;6;2.5;;;;;;;15.09;50.27051;936.9623;;;;
2023/03/19 10:27:18;;;;;;;3.5;2.4;;;;;;;14.78;51.46875;936.9894;;;;
2023/03/19 10:29:43;;;;;;;4.3;2.8;;;;;;;14.94;50.33398;936.9908;;;;
2023/03/19 10:32:11;;;;;;;3.2;2.4;;;;;;;15.17;50.41797;936.9903;;;;
2023/03/19 10:34:38;;;;;;;4.3;2.7;;;;;;;15.34;48.1748;936.9969;;;;
2023/03/19 10:37:04;;;;;;;3.2;2.4;;;;;;;15.55;49.37598;936.9941;;;;
2023/03/19 10:39:29;;;;;;;3.7;2.5;;;;;;;15.26;49.76953;936.8622;;;;
2023/03/19 10:41:58;;;;;;;4.6;2.6;;;;;;;15.23;49.0625;936.9258;;;;
2023/03/19 10:44:23;;;;;;;4.4;2.7;;;;;;;15.45;48.83301;936.9102;;;;
2023/03/19 10:46:48;;;;;;;4.4;2.7;;;;;;;15.62;48.51758;936.899;;;;
2023/03/19 10:49:19;;;;;;;3;2.4;;;;;;;15.83;47.54785;936.8077;;;;
2023/03/19 10:51:44;;;;;;;2.8;2.5;;;;;;;15.66;48.26758;936.8206;;;;
2023/03/19 10:54:09;;;;;;;5.5;2.7;;;;;;;15.4;49.0127;936.8092;;;;
2023/03/19 10:56:37;;;;;;;4.5;2.7;;;;;;;15.27;48.58301;936.7658;;;;
2023/03/19 10:59:04;;;;;;;4.6;2.9;;;;;;;15.16;49.97852;936.7755;;;;
2023/03/19 11:01:30;;;;;;;3.3;2.6;;;;;;;15.21;50.65332;936.8254;;;;
2023/03/19 11:04:01;;;;;;;5.1;2.9;;;;;;;15.28;50.37305;936.8042;;;;
2023/03/19 11:06:26;;;;;;;3.4;2.5;;;;;;;15.36;49.43457;936.7656;;;;
2023/03/19 11:08:54;;;;;;;3.9;3;;;;;;;15.47;48.9043;936.7695;;;;
2023/03/19 11:11:22;;;;;;;3.5;2.6;;;;;;;15.62;48.4375;936.7433;;;;
2023/03/19 11:13:47;;;;;;;4.3;2.6;;;;;;;15.52;48.45996;936.7424;;;;
2023/03/19 11:16:15;;;;;;;5.9;2.8;;;;;;;15.58;49.41309;936.6397;;;;
2023/03/19 11:18:40;;;;;;;4;2.7;;;;;;;15.34;51.17578;936.664;;;;
2023/03/19 11:21:07;;;;;;;4.2;2.6;;;;;;;15.57;49.00781;936.6181;;;;
2023/03/19 11:23:34;;;;;;;4.2;2.2;;;;;;;16.13;48.18164;936.5339;;;;
2023/03/19 11:26:00;;;;;;;5.7;2.9;;;;;;;16.58;46.34277;936.5595;;;;
2023/03/19 11:28:31;;;;;;;3.8;2.5;;;;;;;17.08;45.62012;936.5698;;;;
2023/03/19 11:30:51;;;;;;;3.8;2.6;;;;;;;17.62;42.62305;936.4537;;;;
2023/03/19 11:33:16;;;;;;;3.7;2.3;;;;;;;17.85;42.72754;936.4739;;;;
2023/03/19 11:35:42;;;;;;;4.3;2.6;;;;;;;18.29;42.56055;936.3994;;;;
2023/03/19 11:38:08;;;;;;;4.4;2.7;;;;;;;18.58;41.41406;936.4025;;;;
2023/03/19 11:40:36;;;;;;;4.7;2.6;;;;;;;18.64;41.45508;936.383;;;;
2023/03/19 11:42:59;;;;;;;4;2.4;;;;;;;18.82;41.32031;936.2633;;;;
2023/03/19 11:45:24;;;;;;;4;2.8;;;;;;;18.95;41.83203;936.3619;;;;
2023/03/19 11:47:50;;;;;;;3.8;2.4;;;;;;;18.33;42.16895;936.3251;;;;
2023/03/19 11:50:18;;;;;;;4.1;2.4;;;;;;;18.53;41.21191;936.2271;;;;
2023/03/19 11:52:41;;;;;;;5.3;2.6;;;;;;;18.61;40.76563;936.267;;;;
2023/03/19 11:55:11;;;;;;;4.4;2.7;;;;;;;18.71;41.2168;936.2297;;;;
2023/03/19 11:57:42;;;;;;;3.2;2.4;;;;;;;18.61;41.49805;936.2227;;;;
2023/03/19 12:00:07;;;;;;;4.5;2.8;;;;;;;18.22;42.05371;936.1663;;;;
2023/03/19 12:02:38;;;;;;;4.6;2.4;;;;;;;18.46;42.90234;936.1859;;;;
2023/03/19 12:05:03;;;;;;;3.4;2.6;;;;;;;19.07;40.62207;936.1264;;;;
2023/03/19 12:07:28;;;;;;;3;2.4;;;;;;;19.79;39.95313;936.1381;;;;
2023/03/19 12:09:53;;;;;;;3.6;2.5;;;;;;;19.38;39.625;936.0909;;;;
2023/03/19 12:12:24;;;;;;;4.1;2.4;;;;;;;19.3;40.44531;936.0591;;;;
2023/03/19 12:14:51;;;;;;;4;2.5;;;;;;;18.84;41.7998;935.9725;;;;
2023/03/19 12:17:16;;;;;;;3.9;2.5;;;;;;;19.17;40.23535;936.0036;;;;
2023/03/19 12:19:42;;;;;;;2.5;2.3;;;;;;;19.42;39.61719;935.9681;;;;
2023/03/19 12:22:07;;;;;;;5.3;3;;;;;;;19.74;39.90234;935.9294;;;;
2023/03/19 12:24:32;;;;;;;4;2.9;;;;;;;20.67;37.90723;935.941;;;;
2023/03/19 12:27:02;;;;;;;4.4;2.7;;;;;;;20.24;37.2627;935.9506;;;;
2023/03/19 12:29:27;;;;;;;2.7;2.3;;;;;;;19.69;38.62695;935.843;;;;
2023/03/19 12:31:52;;;;;;;3.1;2.1;;;;;;;19.38;38.96094;935.848;;;;
2023/03/19 12:34:18;;;;;;;4.4;2.4;;;;;;;19.53;40.00098;935.8276;;;;
2023/03/19 12:36:43;;;;;;;4;3.1;;;;;;;19.87;40.5791;935.8631;;;;
2023/03/19 12:39:08;;;;;;;3;2.2;;;;;;;21.31;36.95508;935.8798;;;;
2023/03/19 12:41:34;;;;;;;3.5;2.2;;;;;;;21.63;35.38965;935.8547;;;;
2023/03/19 12:44:04;;;;;;;4.4;2.3;;;;;;;21.35;36.44336;935.8337;;;;
2023/03/19 12:46:30;;;;;;;3.2;2.5;;;;;;;22.21;34.61328;935.8329;;;;
2023/03/19 12:48:54;;;;;;;4.1;2.2;;;;;;;22.13;34.15039;935.8051;;;;
2023/03/19 12:51:19;;;;;;;3;2.1;;;;;;;20.35;37.19043;935.7475;;;;
2023/03/19 12:53:45;;;;;;;2.9;2.1;;;;;;;19.66;38.44922;935.697;;;;
2023/03/19 12:56:10;;;;;;;3.2;2.5;;;;;;;18.72;40.96191;935.7809;;;;
2023/03/19 12:58:35;;;;;;;3;2.3;;;;;;;18.35;41.27637;935.7537;;;;
2023/03/19 13:01:06;;;;;;;4.3;2.4;;;;;;;18.04;42.39746;935.8011;;;;
2023/03/19 13:03:28;;;;;;;3.3;2.6;;;;;;;18.12;42.28906;935.805;;;;
2023/03/19 13:05:53;;;;;;;4.6;2.5;;;;;;;18.71;41.97266;935.736;;;;
2023/03/19 13:08:19;;;;;;;3.2;2.3;;;;;;;20.31;37.95703;935.7311;;;;
2023/03/19 13:10:43;;;;;;;4.4;2.7;;;;;;;20.67;38.31543;935.6716;;;;
2023/03/19 13:13:09;;;;;;;3.7;2.3;;;;;;;21.26;36.30762;935.6829;;;;
2023/03/19 13:15:37;;;;;;;4.6;2.3;;;;;;;20.95;37.32324;935.6573;;;;
2023/03/19 13:18:07;;;;;;;3.9;2.3;;;;;;;21.28;35.81738;935.611;;;;
2023/03/19 13:20:32;;;;;;;4;2.3;;;;;;;20.87;37.07031;935.653;;;;
2023/03/19 13:23:00;;;;;;;4.6;2.4;;;;;;;19.57;38.9668;935.6161;;;;
2023/03/19 13:25:25;;;;;;;3.9;2.3;;;;;;;18.89;40.84961;935.6266;;;;
2023/03/19 13:27:52;;;;;;;3.2;2.4;;;;;;;19.25;39.6377;935.5656;;;;
2023/03/19 13:30:20;;;;;;;3;2.4;;;;;;;19.45;38.61719;935.5975;;;;
2023/03/19 13:32:45;;;;;;;3.2;2.3;;;;;;;19.92;38.68164;935.5787;;;;
2023/03/19 13:35:12;;;;;;;4.2;2.6;;;;;;;20.01;38.34082;935.5563;;;;
2023/03/19 13:37:40;;;;;;;3.8;2.3;;;;;;;19.5;39.93945;935.5928;;;;
2023/03/19 13:40:04;;;;;;;3.4;2.6;;;;;;;19.06;40.20215;935.4932;;;;
2023/03/19 13:42:32;;;;;;;3.6;2.4;;;;;;;19.4;39.91797;935.601;;;;
2023/03/19 13:45:01;;;;;;;3.9;2.3;;;;;;;20.26;38;935.5715;;;;
2023/03/19 13:47:27;;;;;;;3.8;2.4;;;;;;;20.77;37.54102;935.5531;;;;
2023/03/19 13:49:54;;;;;;;3.9;2.2;;;;;;;20.21;38.59082;935.5309;;;;
2023/03/19 13:52:19;;;;;;;4.5;2.6;;;;;;;20.17;38.43555;935.5597;;;;
2023/03/19 13:54:44;;;;;;;4.6;2.6;;;;;;;19.74;39.16797;935.5441;;;;
2023/03/19 13:57:12;;;;;;;5.6;2.5;;;;;;;19.22;40.99707;935.4922;;;;
2023/03/19 13:59:35;;;;;;;3.8;2.4;;;;;;;18.42;41.74805;935.4604;;;;
2023/03/19 14:02:02;;;;;;;5.3;2.4;;;;;;;18.12;43.25293;935.5594;;;;
2023/03/19 14:04:29;;;;;;;4;2.4;;;;;;;17.82;43.27051;935.4877;;;;
2023/03/19 14:06:54;;;;;;;3;2.5;;;;;;;17.56;44.16113;935.4614;;;;
2023/03/19 14:09:19;;;;;;;4;2.4;;;;;;;17.4;44.57422;935.5137;;;;
2023/03/19 14:11:46;;;;;;;3.2;2.6;;;;;;;17.39;44.41016;935.5413;;;;
2023/03/19 14:14:15;;;;;;;3.4;2.2;;;;;;;17.37;45.25488;935.4716;;;;
2023/03/19 14:16:40;;;;;;;4.3;2.6;;;;;;;17.32;44.76367;935.4871;;;;
2023/03/19 14:19:05;;;;;;;4.1;2.3;;;;;;;17.15;45.19824;935.4774;;;;
2023/03/19 14:21:31;;;;;;;6.2;2.5;;;;;;;17.14;45.41699;935.4922;;;;
2023/03/19 14:23:59;;;;;;;4.7;2.3;;;;;;;16.99;45.16992;935.4039;;;;
2023/03/19 14:26:24;;;;;;;4.8;2.4;;;;;;;16.63;46.9043;935.4424;;;;
2023/03/19 14:28:51;;;;;;;5.3;2.5;;;;;;;16.45;47.35938;935.4557;;;;
2023/03/19 14:31:16;;;;;;;3.6;2.5;;;;;;;16.11;48.47949;935.4666;;;;
2023/03/19 14:33:42;;;;;;;2.9;2.3;;;;;;;15.96;49.20313;935.4872;;;;
2023/03/19 14:36:09;;;;;;;3.4;2.4;;;;;;;15.91;47.90234;935.4678;;;;
2023/03/19 14:38:36;;;;;;;4;2.5;;;;;;;15.83;48.42578;935.5028;;;;
2023/03/19 14:41:01;;;;;;;5;2.8;;;;;;;15.64;50.25195;935.4155;;;;
2023/03/19 14:43:33;;;;;;;4.2;2.6;;;;;;;15.63;49.77832;935.5239;;;;
2023/03/19 14:45:58;;;;;;;3.6;2.5;;;;;;;15.63;49.01563;935.5432;;;;